Time;durP1;ratioP1;P1;durP2;ratioP2;P2;SDS_P1;SDS_P2;PMS_P1;PMS_P2;Temp;Humidity;BMP_temperature;BMP_pressure;BME280_temperature;BME280_humidity;BME280_pressure;Samples;Min_cycle;Max_cycle;Signal;HPM_P1;HPM_P2
2022/01/27 00:02:13;;;;;;;48.93;19.07;;;;;;;;;;4952735;28;20235;-62
2022/01/27 00:04:52;;;;;;;37.03;18.47;;;;;;;;;;4954118;28;20711;-64
2022/01/27 00:07:19;;;;;;;43.00;19.97;;;;;;;;;;4951147;28;20218;-64
2022/01/27 00:10:03;;;;;;;40.63;17.63;;;;;;;;;;4947168;28;20488;-64
2022/01/27 00:12:30;;;;;;;39.57;18.87;;;;;;;;;;4947733;28;20232;-63
2022/01/27 00:15:09;;;;;;;40.33;19.83;;;;;;;;;;4952221;28;20278;-64
2022/01/27 00:17:47;;;;;;;37.37;18.93;;;;;;;;;;4940571;28;20274;-63
2022/01/27 00:20:15;;;;;;;39.87;17.47;;;;;;;;;;4953652;28;20264;-64
2022/01/27 00:22:42;;;;;;;40.63;18.40;;;;;;;;;;4952563;28;20225;-62
2022/01/27 00:25:11;;;;;;;29.90;16.50;;;;;;;;;;4946812;28;20310;-64
2022/01/27 00:27:38;;;;;;;35.80;17.67;;;;;;;;;;4952695;28;20225;-63
2022/01/27 00:30:07;;;;;;;36.50;17.50;;;;;;;;;;4952410;28;20727;-63
2022/01/27 00:32:35;;;;;;;36.47;18.17;;;;;;;;;;4943988;28;20211;-64
2022/01/27 00:35:03;;;;;;;37.10;18.13;;;;;;;;;;4949747;28;20441;-64
2022/01/27 00:37:31;;;;;;;36.07;17.50;;;;;;;;;;4950662;28;20219;-65
2022/01/27 00:39:58;;;;;;;39.43;18.93;;;;;;;;;;4951514;28;20231;-63
2022/01/27 00:42:27;;;;;;;36.50;18.33;;;;;;;;;;4949644;28;20209;-64
2022/01/27 00:44:55;;;;;;;35.50;17.10;;;;;;;;;;4948078;28;20216;-63
2022/01/27 00:47:22;;;;;;;34.67;16.97;;;;;;;;;;4952607;28;20238;-64
2022/01/27 00:49:50;;;;;;;33.77;16.90;;;;;;;;;;4950308;28;20218;-63
2022/01/27 00:52:27;;;;;;;33.63;16.47;;;;;;;;;;4951594;28;20246;-63
2022/01/27 00:54:55;;;;;;;29.40;16.83;;;;;;;;;;4953753;28;20679;-63
2022/01/27 01:00:01;;;;;;;31.77;17.30;;;;;;;;;;4952409;28;20249;-63
2022/01/27 01:02:48;;;;;;;33.43;16.27;;;;;;;;;;4951933;28;20203;-63
2022/01/27 01:05:58;;;;;;;29.57;16.53;;;;;;;;;;4943187;28;20210;-63
2022/01/27 01:08:53;;;;;;;27.73;16.63;;;;;;;;;;4950272;28;20298;-64
2022/01/27 01:15:50;;;;;;;30.80;16.63;;;;;;;;;;4951490;28;20208;-63
2022/01/27 01:32:15;;;;;;;25.30;14.43;;;;;;;;;;4948417;28;20229;-63
2022/01/27 01:34:47;;;;;;;28.00;14.03;;;;;;;;;;4950146;28;20229;-63
2022/01/27 01:37:18;;;;;;;28.70;14.97;;;;;;;;;;4951926;28;20224;-62
2022/01/27 01:39:45;;;;;;;25.23;14.37;;;;;;;;;;4946306;28;20207;-63
2022/01/27 01:42:13;;;;;;;22.33;12.97;;;;;;;;;;4941897;28;20238;-63
2022/01/27 01:44:41;;;;;;;28.87;15.00;;;;;;;;;;4949786;28;20226;-63
2022/01/27 01:47:09;;;;;;;26.10;14.77;;;;;;;;;;4950330;28;20307;-62
2022/01/27 01:49:36;;;;;;;25.27;14.53;;;;;;;;;;4953311;28;20212;-63
2022/01/27 01:52:06;;;;;;;26.07;14.50;;;;;;;;;;4951129;28;20240;-63
2022/01/27 01:54:34;;;;;;;28.70;14.97;;;;;;;;;;4951431;28;20209;-63
2022/01/27 01:57:02;;;;;;;27.37;15.30;;;;;;;;;;4951716;28;20209;-63
2022/01/27 01:59:30;;;;;;;25.90;14.97;;;;;;;;;;4954975;28;20216;-62
2022/01/27 02:01:58;;;;;;;29.73;15.10;;;;;;;;;;4953796;28;20240;-63
2022/01/27 02:04:25;;;;;;;25.60;13.73;;;;;;;;;;4953929;28;20262;-62
2022/01/27 02:07:00;;;;;;;25.83;14.17;;;;;;;;;;4951726;28;21643;-63
2022/01/27 02:17:59;;;;;;;27.30;13.80;;;;;;;;;;4952646;28;20681;-62
2022/01/27 02:20:31;;;;;;;25.13;13.17;;;;;;;;;;4953286;28;20237;-64
2022/01/27 02:22:59;;;;;;;26.93;13.77;;;;;;;;;;4952692;28;20218;-62
2022/01/27 02:25:26;;;;;;;26.27;13.63;;;;;;;;;;4951398;28;20205;-63
2022/01/27 02:27:54;;;;;;;23.77;12.60;;;;;;;;;;4950985;28;20220;-63
2022/01/27 02:30:23;;;;;;;20.80;12.20;;;;;;;;;;4955757;28;20735;-63
2022/01/27 02:32:52;;;;;;;23.20;12.93;;;;;;;;;;4953933;28;20198;-63
2022/01/27 02:35:24;;;;;;;18.00;10.03;;;;;;;;;;4959467;28;21331;-64
2022/01/27 02:37:52;;;;;;;9.43;6.40;;;;;;;;;;4952598;28;20364;-63
2022/01/27 02:40:23;;;;;;;13.07;7.27;;;;;;;;;;4955170;28;20323;-63
2022/01/27 02:42:51;;;;;;;14.30;9.33;;;;;;;;;;4950491;28;20222;-63
2022/01/27 02:45:23;;;;;;;19.83;11.70;;;;;;;;;;4950416;28;20216;-62
2022/01/27 02:47:50;;;;;;;21.30;12.00;;;;;;;;;;4960974;28;20215;-64
2022/01/27 02:50:18;;;;;;;25.27;12.93;;;;;;;;;;4950338;28;20262;-63
2022/01/27 02:52:46;;;;;;;23.40;12.27;;;;;;;;;;4953478;28;20234;-62
2022/01/27 02:55:13;;;;;;;23.23;11.67;;;;;;;;;;4953522;28;20207;-62
2022/01/27 02:57:41;;;;;;;18.97;11.00;;;;;;;;;;4945474;28;20242;-62
2022/01/27 03:00:08;;;;;;;21.33;11.50;;;;;;;;;;4956713;28;20234;-62
2022/01/27 03:02:36;;;;;;;17.53;10.43;;;;;;;;;;4949393;28;20317;-62
2022/01/27 03:05:04;;;;;;;18.97;10.47;;;;;;;;;;4953626;28;20218;-63
2022/01/27 03:07:32;;;;;;;18.27;10.17;;;;;;;;;;4953574;28;20676;-64
2022/01/27 03:09:59;;;;;;;13.70;7.40;;;;;;;;;;4953789;28;20565;-64
2022/01/27 03:12:29;;;;;;;16.70;9.27;;;;;;;;;;4956014;28;20232;-64
2022/01/27 03:14:58;;;;;;;14.60;8.63;;;;;;;;;;4955089;28;20209;-64
2022/01/27 03:17:25;;;;;;;10.47;5.83;;;;;;;;;;4952417;28;20209;-63
2022/01/27 03:19:53;;;;;;;18.70;8.47;;;;;;;;;;4953909;28;20214;-63
2022/01/27 03:22:20;;;;;;;13.50;8.10;;;;;;;;;;4952933;28;23120;-64
2022/01/27 03:24:48;;;;;;;14.53;8.43;;;;;;;;;;4955473;28;20212;-63
2022/01/27 03:27:20;;;;;;;14.73;9.23;;;;;;;;;;4954179;28;20225;-63
2022/01/27 03:29:48;;;;;;;18.97;10.43;;;;;;;;;;4956581;28;20618;-63
2022/01/27 03:32:16;;;;;;;18.63;10.43;;;;;;;;;;4951367;28;20237;-64
2022/01/27 03:34:43;;;;;;;16.23;10.50;;;;;;;;;;4944435;28;20221;-62
2022/01/27 03:37:11;;;;;;;17.50;10.20;;;;;;;;;;4953423;28;20214;-62
2022/01/27 03:39:40;;;;;;;16.77;10.07;;;;;;;;;;4954528;28;20262;-62
2022/01/27 03:42:08;;;;;;;18.57;10.33;;;;;;;;;;4958165;28;20221;-63
2022/01/27 03:44:36;;;;;;;18.47;9.60;;;;;;;;;;4954571;28;20215;-62
2022/01/27 03:47:03;;;;;;;17.17;9.30;;;;;;;;;;4958149;28;20731;-62
2022/01/27 03:49:31;;;;;;;19.50;10.03;;;;;;;;;;4954239;28;20213;-64
2022/01/27 03:52:01;;;;;;;17.60;10.23;;;;;;;;;;4952271;28;20244;-63
2022/01/27 03:54:32;;;;;;;18.17;9.93;;;;;;;;;;4955851;28;20355;-62
2022/01/27 03:57:00;;;;;;;18.27;11.60;;;;;;;;;;4950954;28;20256;-63
2022/01/27 03:59:29;;;;;;;19.23;10.87;;;;;;;;;;4954158;28;20732;-63
2022/01/27 04:01:56;;;;;;;19.13;10.13;;;;;;;;;;4962516;28;20628;-62
2022/01/27 04:04:25;;;;;;;19.50;10.23;;;;;;;;;;4955349;28;20216;-64
2022/01/27 04:06:54;;;;;;;18.17;10.97;;;;;;;;;;4955097;28;20225;-63
2022/01/27 04:09:22;;;;;;;18.63;10.33;;;;;;;;;;4960625;28;20221;-62
2022/01/27 04:11:50;;;;;;;20.60;10.47;;;;;;;;;;4949372;28;20249;-63
2022/01/27 04:14:17;;;;;;;18.00;10.17;;;;;;;;;;4958563;28;20228;-63
2022/01/27 04:16:45;;;;;;;16.07;9.43;;;;;;;;;;4951302;28;20201;-63
2022/01/27 04:19:13;;;;;;;21.43;9.63;;;;;;;;;;4958181;28;20207;-63
2022/01/27 04:21:40;;;;;;;21.93;10.63;;;;;;;;;;4944644;28;20284;-63
2022/01/27 04:24:09;;;;;;;21.53;11.03;;;;;;;;;;4960954;28;20342;-62
2022/01/27 04:26:48;;;;;;;19.37;10.20;;;;;;;;;;4952652;28;20291;-63
2022/01/27 04:29:18;;;;;;;17.73;10.20;;;;;;;;;;4956405;28;20204;-62
2022/01/27 04:31:47;;;;;;;22.63;10.30;;;;;;;;;;4957062;28;20254;-63
2022/01/27 04:34:15;;;;;;;16.33;9.47;;;;;;;;;;4955549;28;20211;-64
2022/01/27 04:36:44;;;;;;;20.03;10.13;;;;;;;;;;4947882;28;20209;-64
2022/01/27 04:39:35;;;;;;;17.37;10.10;;;;;;;;;;4952031;28;20280;-63
2022/01/27 04:42:13;;;;;;;15.37;8.83;;;;;;;;;;4950033;28;20208;-63
2022/01/27 04:44:54;;;;;;;16.87;8.30;;;;;;;;;;4960246;28;20219;-62
2022/01/27 04:47:29;;;;;;;12.00;7.90;;;;;;;;;;4969039;28;20215;-64
2022/01/27 04:49:57;;;;;;;14.47;8.80;;;;;;;;;;4958381;28;20283;-63
2022/01/27 04:52:27;;;;;;;14.17;8.77;;;;;;;;;;4951918;28;20229;-64
2022/01/27 04:55:04;;;;;;;19.17;9.63;;;;;;;;;;4956764;28;20210;-64
2022/01/27 04:57:32;;;;;;;16.73;8.53;;;;;;;;;;4951441;28;20235;-63
2022/01/27 04:59:59;;;;;;;16.93;9.30;;;;;;;;;;4950644;28;20232;-63
2022/01/27 05:02:43;;;;;;;28.00;13.63;;;;;;;;;;4959242;28;20773;-63
2022/01/27 05:05:17;;;;;;;39.93;18.60;;;;;;;;;;4961161;28;20801;-62
2022/01/27 05:07:56;;;;;;;25.60;14.13;;;;;;;;;;4957142;28;20211;-63
2022/01/27 05:10:28;;;;;;;15.50;8.43;;;;;;;;;;4953888;28;20250;-63
2022/01/27 05:13:02;;;;;;;13.67;8.20;;;;;;;;;;4951604;28;20236;-63
2022/01/27 05:15:29;;;;;;;15.80;8.27;;;;;;;;;;4959991;28;20206;-64
2022/01/27 05:17:56;;;;;;;19.80;10.87;;;;;;;;;;4962857;28;20199;-64
2022/01/27 05:20:24;;;;;;;16.57;9.77;;;;;;;;;;4969746;28;20227;-63
2022/01/27 05:22:53;;;;;;;16.43;8.13;;;;;;;;;;4962468;28;20214;-62
2022/01/27 05:25:20;;;;;;;19.77;9.67;;;;;;;;;;4960734;28;20577;-63
2022/01/27 05:27:47;;;;;;;21.97;10.77;;;;;;;;;;4966449;28;20224;-63
2022/01/27 05:30:15;;;;;;;23.73;9.53;;;;;;;;;;4963174;28;20643;-64
2022/01/27 05:32:42;;;;;;;17.90;8.40;;;;;;;;;;4965917;28;20277;-64
2022/01/27 05:35:09;;;;;;;14.27;7.93;;;;;;;;;;4969404;28;20204;-63
2022/01/27 05:37:37;;;;;;;11.87;6.93;;;;;;;;;;4963877;28;20234;-64
2022/01/27 05:40:05;;;;;;;11.40;5.60;;;;;;;;;;4967810;28;20239;-64
2022/01/27 05:42:32;;;;;;;13.63;8.57;;;;;;;;;;4965064;28;20251;-63
2022/01/27 05:45:00;;;;;;;14.97;8.30;;;;;;;;;;4966954;28;20226;-63
2022/01/27 05:47:27;;;;;;;11.50;7.13;;;;;;;;;;4966910;28;20221;-64
2022/01/27 05:49:55;;;;;;;8.77;5.33;;;;;;;;;;4969200;28;20238;-62
2022/01/27 05:52:22;;;;;;;5.97;4.17;;;;;;;;;;4967190;28;20234;-63
2022/01/27 05:54:50;;;;;;;9.83;4.67;;;;;;;;;;4968552;28;20208;-62
2022/01/27 05:57:17;;;;;;;9.00;4.90;;;;;;;;;;4963569;28;20280;-62
2022/01/27 05:59:45;;;;;;;4.67;3.50;;;;;;;;;;4962259;28;20301;-62
2022/01/27 06:02:12;;;;;;;6.97;4.30;;;;;;;;;;4970596;28;20240;-63
2022/01/27 06:04:39;;;;;;;9.87;5.13;;;;;;;;;;4971389;28;20272;-65
2022/01/27 06:07:07;;;;;;;15.23;8.37;;;;;;;;;;4964993;28;20252;-63
2022/01/27 06:09:34;;;;;;;10.63;6.33;;;;;;;;;;4972416;28;20216;-63
2022/01/27 06:12:01;;;;;;;4.47;3.87;;;;;;;;;;4963053;28;20708;-63
2022/01/27 06:14:29;;;;;;;4.33;3.70;;;;;;;;;;4969086;28;20209;-64
2022/01/27 06:16:56;;;;;;;14.20;6.53;;;;;;;;;;4966634;28;20299;-64
2022/01/27 06:19:27;;;;;;;12.80;8.50;;;;;;;;;;4973299;28;20734;-61
2022/01/27 06:21:55;;;;;;;13.23;8.47;;;;;;;;;;4972232;28;20224;-63
2022/01/27 06:24:23;;;;;;;10.33;6.67;;;;;;;;;;4969500;28;20760;-63
2022/01/27 06:26:50;;;;;;;12.20;6.87;;;;;;;;;;4966061;28;20207;-63
2022/01/27 06:29:17;;;;;;;11.47;9.23;;;;;;;;;;4960425;28;20221;-63
2022/01/27 06:31:46;;;;;;;9.40;6.93;;;;;;;;;;4965812;28;20250;-62
2022/01/27 06:34:14;;;;;;;9.23;6.83;;;;;;;;;;4964604;28;20214;-64
2022/01/27 06:36:42;;;;;;;42.13;23.43;;;;;;;;;;4970999;28;20677;-63
2022/01/27 06:39:09;;;;;;;38.20;18.40;;;;;;;;;;4964637;28;20208;-62
2022/01/27 06:41:36;;;;;;;32.83;16.93;;;;;;;;;;4968064;28;20221;-62
2022/01/27 06:44:05;;;;;;;44.47;24.17;;;;;;;;;;4971174;28;20241;-63
2022/01/27 06:46:33;;;;;;;41.60;22.27;;;;;;;;;;4966279;28;20620;-63
2022/01/27 06:49:00;;;;;;;48.33;24.77;;;;;;;;;;4970118;28;20205;-63
2022/01/27 06:51:29;;;;;;;60.27;27.93;;;;;;;;;;4969273;28;20255;-63
2022/01/27 06:53:57;;;;;;;32.00;18.23;;;;;;;;;;4984398;28;20216;-63
2022/01/27 06:56:25;;;;;;;18.87;11.30;;;;;;;;;;4972387;28;20215;-62
2022/01/27 06:58:53;;;;;;;21.53;11.50;;;;;;;;;;4962508;28;20715;-62
2022/01/27 07:01:21;;;;;;;26.40;13.80;;;;;;;;;;4965852;28;20253;-62
2022/01/27 07:03:49;;;;;;;19.60;12.33;;;;;;;;;;4959362;28;20212;-64
2022/01/27 07:06:17;;;;;;;19.40;11.00;;;;;;;;;;4969329;28;20690;-64
2022/01/27 07:08:44;;;;;;;16.93;10.30;;;;;;;;;;4974003;28;20213;-64
2022/01/27 07:11:12;;;;;;;26.80;16.60;;;;;;;;;;4964836;28;20217;-63
2022/01/27 07:13:40;;;;;;;16.43;9.83;;;;;;;;;;4961875;28;20268;-64
2022/01/27 07:16:08;;;;;;;16.27;8.90;;;;;;;;;;4973630;28;20216;-63
2022/01/27 07:18:36;;;;;;;6.83;4.00;;;;;;;;;;4963208;28;20886;-62
2022/01/27 07:21:04;;;;;;;3.40;3.10;;;;;;;;;;4975854;28;20224;-62
2022/01/27 07:23:32;;;;;;;3.00;2.70;;;;;;;;;;4978565;28;20205;-63
2022/01/27 07:26:00;;;;;;;4.67;3.10;;;;;;;;;;4977939;28;20658;-63
2022/01/27 07:28:27;;;;;;;3.10;2.37;;;;;;;;;;4959173;28;20334;-62
2022/01/27 07:30:55;;;;;;;3.03;2.73;;;;;;;;;;4964806;28;20225;-64
2022/01/27 07:33:22;;;;;;;2.93;2.70;;;;;;;;;;4966123;28;20303;-63
2022/01/27 07:35:50;;;;;;;3.13;2.40;;;;;;;;;;4965664;28;20279;-63
2022/01/27 07:38:17;;;;;;;5.20;3.43;;;;;;;;;;4956046;28;20265;-64
2022/01/27 07:40:45;;;;;;;4.13;3.20;;;;;;;;;;4967627;28;20240;-64
2022/01/27 07:43:14;;;;;;;3.90;3.57;;;;;;;;;;4965955;28;20597;-64
2022/01/27 07:45:42;;;;;;;9.97;6.50;;;;;;;;;;4962484;28;20682;-63
2022/01/27 07:48:09;;;;;;;25.10;12.67;;;;;;;;;;4965162;28;20205;-64
2022/01/27 07:50:37;;;;;;;26.13;13.03;;;;;;;;;;4964777;28;20253;-64
2022/01/27 07:53:04;;;;;;;18.33;9.47;;;;;;;;;;4969201;28;20279;-63
2022/01/27 07:55:32;;;;;;;16.40;8.80;;;;;;;;;;4972039;28;20216;-63
2022/01/27 07:57:59;;;;;;;11.10;6.53;;;;;;;;;;4964190;28;20264;-63
2022/01/27 08:00:27;;;;;;;7.60;4.97;;;;;;;;;;4960427;28;20232;-62
2022/01/27 08:02:54;;;;;;;5.03;3.73;;;;;;;;;;4958874;28;20642;-63
2022/01/27 08:05:22;;;;;;;4.57;3.20;;;;;;;;;;4958045;28;20209;-63
2022/01/27 08:07:51;;;;;;;4.43;3.50;;;;;;;;;;4955995;28;20236;-62
2022/01/27 08:10:18;;;;;;;3.60;3.30;;;;;;;;;;4967385;28;20232;-62
2022/01/27 08:12:46;;;;;;;4.97;3.50;;;;;;;;;;4955773;28;20852;-62
2022/01/27 08:15:19;;;;;;;6.10;3.57;;;;;;;;;;4952181;28;20954;-63
2022/01/27 08:17:47;;;;;;;5.87;3.70;;;;;;;;;;4959315;28;20213;-63
2022/01/27 08:20:14;;;;;;;3.23;2.80;;;;;;;;;;4966697;28;20706;-63
2022/01/27 08:22:44;;;;;;;5.80;3.03;;;;;;;;;;4964445;28;20212;-62
2022/01/27 08:25:11;;;;;;;3.47;2.63;;;;;;;;;;4964537;28;20213;-63
2022/01/27 08:27:42;;;;;;;3.20;2.90;;;;;;;;;;4958550;28;20264;-63
2022/01/27 08:30:09;;;;;;;18.67;9.93;;;;;;;;;;4960388;28;20221;-62
2022/01/27 08:33:20;;;;;;;15.20;7.27;;;;;;;;;;4974245;28;20222;-63
2022/01/27 08:35:27;;;;;;;9.33;6.20;;;;;;;;;;4960509;28;20208;-63
2022/01/27 08:37:55;;;;;;;7.30;4.90;;;;;;;;;;4961223;28;20284;-62
2022/01/27 08:40:23;;;;;;;8.20;5.23;;;;;;;;;;4960671;28;20233;-62
2022/01/27 08:43:04;;;;;;;10.57;5.83;;;;;;;;;;4957765;28;20214;-62
2022/01/27 08:45:34;;;;;;;6.10;3.83;;;;;;;;;;4963114;28;20288;-64
2022/01/27 08:48:02;;;;;;;3.27;2.90;;;;;;;;;;4968212;28;20209;-63
2022/01/27 08:50:29;;;;;;;3.73;2.97;;;;;;;;;;4967456;28;20256;-62
2022/01/27 08:52:57;;;;;;;6.47;3.23;;;;;;;;;;4962022;28;20252;-64
2022/01/27 08:55:24;;;;;;;3.23;2.60;;;;;;;;;;4957009;28;20720;-63
2022/01/27 08:57:52;;;;;;;5.07;3.10;;;;;;;;;;4959144;28;20203;-63
2022/01/27 09:00:19;;;;;;;4.40;3.30;;;;;;;;;;4961060;28;20806;-61
2022/01/27 09:03:07;;;;;;;5.43;3.27;;;;;;;;;;4963789;28;20211;-64
2022/01/27 09:05:35;;;;;;;6.40;5.20;;;;;;;;;;4969969;28;20302;-63
2022/01/27 09:08:02;;;;;;;4.73;3.60;;;;;;;;;;4977552;28;20209;-63
2022/01/27 09:10:31;;;;;;;4.70;4.10;;;;;;;;;;4965315;28;20233;-63
2022/01/27 09:13:00;;;;;;;6.57;4.93;;;;;;;;;;4981088;28;20229;-63
2022/01/27 09:15:28;;;;;;;5.50;3.93;;;;;;;;;;4967135;28;20206;-63
2022/01/27 09:17:58;;;;;;;7.13;4.60;;;;;;;;;;4968189;28;20209;-63
2022/01/27 09:20:26;;;;;;;6.57;4.57;;;;;;;;;;4967924;28;20228;-63
2022/01/27 09:22:56;;;;;;;6.60;4.17;;;;;;;;;;4957999;28;20669;-64
2022/01/27 09:25:30;;;;;;;6.53;4.60;;;;;;;;;;4959282;28;20210;-62
2022/01/27 09:27:58;;;;;;;7.10;4.30;;;;;;;;;;4959670;28;20210;-63
2022/01/27 09:30:27;;;;;;;6.97;4.80;;;;;;;;;;4968683;28;20240;-62
2022/01/27 09:32:56;;;;;;;5.97;4.30;;;;;;;;;;4976663;28;20259;-63
2022/01/27 09:35:23;;;;;;;5.67;4.40;;;;;;;;;;4967086;28;20283;-64
2022/01/27 09:37:51;;;;;;;7.23;4.57;;;;;;;;;;4971634;28;20218;-64
2022/01/27 09:40:19;;;;;;;8.40;6.07;;;;;;;;;;4967604;28;20283;-63
2022/01/27 09:42:50;;;;;;;7.30;4.87;;;;;;;;;;4966591;28;20213;-64
2022/01/27 09:45:18;;;;;;;5.80;4.50;;;;;;;;;;4968850;28;20213;-64
2022/01/27 09:47:54;;;;;;;7.27;4.20;;;;;;;;;;4966890;28;20261;-64
2022/01/27 09:50:25;;;;;;;7.07;4.83;;;;;;;;;;4968328;28;20231;-64
2022/01/27 09:52:55;;;;;;;8.20;4.40;;;;;;;;;;4974482;28;20242;-64
2022/01/27 09:55:23;;;;;;;8.30;4.53;;;;;;;;;;4970844;28;20253;-64
2022/01/27 09:57:54;;;;;;;7.90;4.63;;;;;;;;;;4977021;28;20211;-64
2022/01/27 10:00:22;;;;;;;6.33;4.47;;;;;;;;;;4970774;28;20715;-64
2022/01/27 10:03:02;;;;;;;12.20;5.37;;;;;;;;;;4974725;28;20207;-64
2022/01/27 10:05:30;;;;;;;9.20;5.47;;;;;;;;;;4975982;28;20682;-62
2022/01/27 10:08:02;;;;;;;11.47;6.20;;;;;;;;;;4981007;28;20677;-64
2022/01/27 10:10:34;;;;;;;12.23;6.77;;;;;;;;;;4971697;28;20317;-61
2022/01/27 10:13:04;;;;;;;12.17;6.87;;;;;;;;;;4973608;28;22917;-63
2022/01/27 10:15:41;;;;;;;10.70;7.13;;;;;;;;;;4969218;28;20222;-64
2022/01/27 10:18:16;;;;;;;11.30;6.63;;;;;;;;;;4967169;28;20205;-63
2022/01/27 10:20:49;;;;;;;13.10;6.80;;;;;;;;;;4973825;28;20226;-64
2022/01/27 10:23:19;;;;;;;12.80;7.63;;;;;;;;;;4998331;28;20614;-62
2022/01/27 10:25:51;;;;;;;16.07;7.57;;;;;;;;;;4971217;28;20741;-63
2022/01/27 10:28:43;;;;;;;11.70;7.47;;;;;;;;;;4969813;28;20209;-64
2022/01/27 10:31:19;;;;;;;13.53;7.47;;;;;;;;;;4966420;28;20227;-64
2022/01/27 10:33:49;;;;;;;12.13;7.37;;;;;;;;;;4966408;28;20227;-64
2022/01/27 10:36:17;;;;;;;14.50;7.33;;;;;;;;;;4971522;28;20565;-63
2022/01/27 10:38:45;;;;;;;13.37;7.87;;;;;;;;;;4970652;28;20215;-62
2022/01/27 10:41:17;;;;;;;14.77;8.27;;;;;;;;;;4967755;28;20228;-64
2022/01/27 10:43:45;;;;;;;12.30;7.03;;;;;;;;;;4969609;28;20303;-64
2022/01/27 10:48:48;;;;;;;13.97;8.27;;;;;;;;;;4970163;28;20217;-62
2022/01/27 10:51:25;;;;;;;13.73;8.10;;;;;;;;;;4968101;28;20232;-64
2022/01/27 10:54:07;;;;;;;12.73;7.80;;;;;;;;;;4969276;28;20282;-64
2022/01/27 10:56:36;;;;;;;12.07;7.87;;;;;;;;;;4969316;28;20201;-62
2022/01/27 10:59:10;;;;;;;11.30;7.70;;;;;;;;;;4972532;28;20675;-65
2022/01/27 11:01:39;;;;;;;12.60;8.20;;;;;;;;;;4967891;28;20228;-64
2022/01/27 11:04:08;;;;;;;15.03;8.37;;;;;;;;;;4974738;28;20264;-64
2022/01/27 11:06:37;;;;;;;12.60;8.20;;;;;;;;;;4968331;28;20209;-64
2022/01/27 11:09:08;;;;;;;11.77;7.63;;;;;;;;;;4963085;28;20212;-64
2022/01/27 11:11:39;;;;;;;11.77;7.67;;;;;;;;;;4960298;28;20225;-63
2022/01/27 11:14:06;;;;;;;14.77;8.40;;;;;;;;;;4967298;28;20255;-64
2022/01/27 11:16:36;;;;;;;18.87;11.80;;;;;;;;;;4971988;28;20212;-64
2022/01/27 11:27:29;;;;;;;15.30;8.03;;;;;;;;;;4950510;28;20219;-62
2022/01/27 11:30:01;;;;;;;13.13;7.80;;;;;;;;;;4960269;28;20233;-64
2022/01/27 11:32:34;;;;;;;12.20;8.07;;;;;;;;;;4946220;28;20220;-62
2022/01/27 11:35:02;;;;;;;13.67;7.77;;;;;;;;;;4947019;28;20781;-65
2022/01/27 11:37:31;;;;;;;11.50;7.47;;;;;;;;;;4951440;28;20318;-64
2022/01/27 11:40:02;;;;;;;14.03;8.37;;;;;;;;;;4953090;28;20229;-63
2022/01/27 11:42:56;;;;;;;14.17;8.13;;;;;;;;;;4953668;28;20223;-63
2022/01/27 11:45:23;;;;;;;14.00;8.67;;;;;;;;;;4942698;28;20213;-62
2022/01/27 11:47:51;;;;;;;14.43;9.33;;;;;;;;;;4963310;28;20197;-62
2022/01/27 11:50:33;;;;;;;12.37;7.80;;;;;;;;;;4962976;28;20324;-64
2022/01/27 11:53:05;;;;;;;15.30;7.70;;;;;;;;;;4958151;28;20201;-63
2022/01/27 11:55:35;;;;;;;13.30;8.03;;;;;;;;;;4963173;28;20205;-63
2022/01/27 11:58:13;;;;;;;14.87;8.67;;;;;;;;;;4964397;28;20197;-62
2022/01/27 12:00:41;;;;;;;15.83;9.33;;;;;;;;;;4952984;28;20232;-64
2022/01/27 12:03:09;;;;;;;16.17;9.47;;;;;;;;;;4966040;28;20620;-65
2022/01/27 12:05:41;;;;;;;17.83;9.30;;;;;;;;;;4964022;28;20209;-64
2022/01/27 12:08:15;;;;;;;17.10;9.50;;;;;;;;;;4980416;28;20214;-64
2022/01/27 12:10:59;;;;;;;18.10;9.87;;;;;;;;;;4967107;28;20231;-63
2022/01/27 12:13:28;;;;;;;18.50;9.40;;;;;;;;;;4973740;28;20225;-62
2022/01/27 12:18:59;;;;;;;18.90;10.00;;;;;;;;;;4972147;28;20663;-64
2022/01/27 12:21:39;;;;;;;16.90;9.77;;;;;;;;;;4968410;28;20217;-64
2022/01/27 12:24:22;;;;;;;17.70;9.87;;;;;;;;;;4975093;28;20221;-63
2022/01/27 12:26:52;;;;;;;18.67;10.03;;;;;;;;;;4953753;28;20674;-63
2022/01/27 12:29:26;;;;;;;17.63;10.57;;;;;;;;;;4961999;28;20216;-62
2022/01/27 12:31:55;;;;;;;16.43;9.07;;;;;;;;;;4970105;28;20225;-62
2022/01/27 12:34:23;;;;;;;15.47;8.67;;;;;;;;;;4966434;28;20229;-62
2022/01/27 12:36:59;;;;;;;17.27;9.53;;;;;;;;;;4968639;28;20275;-62
2022/01/27 12:39:28;;;;;;;15.40;8.47;;;;;;;;;;4964779;28;20211;-64
2022/01/27 12:41:56;;;;;;;14.27;8.97;;;;;;;;;;4965662;28;20308;-63
2022/01/27 12:44:26;;;;;;;13.70;8.87;;;;;;;;;;4964581;28;20214;-63
2022/01/27 12:47:03;;;;;;;16.70;9.13;;;;;;;;;;4960097;28;20218;-64
2022/01/27 12:49:40;;;;;;;16.07;9.07;;;;;;;;;;4982425;28;20225;-64
2022/01/27 12:52:10;;;;;;;16.80;9.43;;;;;;;;;;4970154;28;20296;-63
2022/01/27 12:54:39;;;;;;;16.37;9.03;;;;;;;;;;4976442;28;20665;-64
2022/01/27 12:57:07;;;;;;;17.03;8.27;;;;;;;;;;4967626;28;20205;-63
2022/01/27 12:59:36;;;;;;;13.03;7.40;;;;;;;;;;4965608;28;20204;-63
2022/01/27 13:02:07;;;;;;;11.73;7.10;;;;;;;;;;4968390;28;20208;-63
2022/01/27 13:04:39;;;;;;;13.40;7.73;;;;;;;;;;4964423;28;20213;-63
2022/01/27 13:07:07;;;;;;;13.50;7.90;;;;;;;;;;4964981;28;20248;-62
2022/01/27 13:09:35;;;;;;;10.80;6.90;;;;;;;;;;4967763;28;20216;-63
2022/01/27 13:12:23;;;;;;;13.07;7.50;;;;;;;;;;4960628;28;20235;-63
2022/01/27 13:15:21;;;;;;;15.17;8.03;;;;;;;;;;4967266;28;20364;-63
2022/01/27 13:17:51;;;;;;;10.67;6.70;;;;;;;;;;4961720;28;20209;-64
2022/01/27 13:20:33;;;;;;;10.67;6.87;;;;;;;;;;4953085;28;20240;-63
2022/01/27 13:23:32;;;;;;;12.43;8.23;;;;;;;;;;4965984;28;20212;-63
2022/01/27 13:25:58;;;;;;;12.33;7.73;;;;;;;;;;4965617;28;20300;-63
2022/01/27 13:28:27;;;;;;;11.63;7.23;;;;;;;;;;4955457;28;20217;-64
2022/01/27 13:30:58;;;;;;;11.63;7.00;;;;;;;;;;4989614;28;20241;-64
2022/01/27 13:33:27;;;;;;;9.33;6.33;;;;;;;;;;4973333;28;20588;-63
2022/01/27 13:35:56;;;;;;;9.80;6.53;;;;;;;;;;4970345;28;20208;-63
2022/01/27 13:38:28;;;;;;;9.63;6.47;;;;;;;;;;4968625;28;20237;-64
2022/01/27 13:41:22;;;;;;;10.43;7.00;;;;;;;;;;4964753;28;20248;-64
2022/01/27 13:44:03;;;;;;;11.57;7.00;;;;;;;;;;4954331;28;20641;-65
2022/01/27 13:46:47;;;;;;;9.90;7.07;;;;;;;;;;4958303;28;20205;-64
2022/01/27 13:49:19;;;;;;;10.00;6.40;;;;;;;;;;4954941;28;20240;-64
2022/01/27 13:51:53;;;;;;;10.87;7.00;;;;;;;;;;4973626;28;20236;-63
2022/01/27 13:54:22;;;;;;;9.43;6.50;;;;;;;;;;4969327;28;20236;-64
2022/01/27 13:56:51;;;;;;;10.00;6.67;;;;;;;;;;4974470;28;20209;-65
2022/01/27 13:59:22;;;;;;;12.77;6.97;;;;;;;;;;4980769;28;20586;-64
2022/01/27 14:01:50;;;;;;;10.00;6.30;;;;;;;;;;4961427;28;20250;-64
2022/01/27 14:04:17;;;;;;;12.00;6.60;;;;;;;;;;4961070;28;20213;-64
2022/01/27 14:06:48;;;;;;;9.40;6.27;;;;;;;;;;4976144;28;20212;-64
2022/01/27 14:09:17;;;;;;;9.70;6.57;;;;;;;;;;4958033;28;20231;-64
2022/01/27 14:11:44;;;;;;;11.23;6.60;;;;;;;;;;4964601;28;20229;-62
2022/01/27 14:14:12;;;;;;;11.13;6.47;;;;;;;;;;4964671;28;20272;-64
2022/01/27 14:16:41;;;;;;;9.77;6.00;;;;;;;;;;4972078;28;20209;-63
2022/01/27 14:19:16;;;;;;;9.53;5.87;;;;;;;;;;4962298;28;20605;-63
2022/01/27 14:21:49;;;;;;;9.27;6.27;;;;;;;;;;4974425;28;20240;-63
2022/01/27 14:24:57;;;;;;;10.10;6.23;;;;;;;;;;4976195;28;20209;-64
2022/01/27 14:27:32;;;;;;;10.23;6.93;;;;;;;;;;4969742;28;20389;-62
2022/01/27 14:29:59;;;;;;;9.33;5.93;;;;;;;;;;4966834;28;20236;-64
2022/01/27 14:32:27;;;;;;;11.50;6.20;;;;;;;;;;4970114;28;20221;-63
2022/01/27 14:34:54;;;;;;;14.83;11.07;;;;;;;;;;4965562;28;20244;-62
2022/01/27 14:37:22;;;;;;;12.23;8.07;;;;;;;;;;4967445;28;20243;-62
2022/01/27 14:39:49;;;;;;;10.20;7.10;;;;;;;;;;4972924;28;20204;-63
2022/01/27 14:42:22;;;;;;;11.90;7.10;;;;;;;;;;4971121;28;20214;-64
2022/01/27 14:44:50;;;;;;;11.10;7.73;;;;;;;;;;4974330;28;20204;-62
2022/01/27 14:47:19;;;;;;;10.70;6.77;;;;;;;;;;4967459;28;20219;-63
2022/01/27 14:49:51;;;;;;;14.50;6.97;;;;;;;;;;4971893;28;20223;-64
2022/01/27 14:52:23;;;;;;;9.53;6.67;;;;;;;;;;4966269;28;20214;-63
2022/01/27 14:54:51;;;;;;;9.87;5.80;;;;;;;;;;4960389;28;20237;-62
2022/01/27 14:57:36;;;;;;;10.43;6.70;;;;;;;;;;4969661;28;20200;-63
2022/01/27 15:00:08;;;;;;;10.00;6.83;;;;;;;;;;4970507;28;20228;-62
2022/01/27 15:02:36;;;;;;;9.70;6.67;;;;;;;;;;4974280;28;20212;-63
2022/01/27 15:05:05;;;;;;;10.47;7.33;;;;;;;;;;4967138;28;20247;-63
2022/01/27 15:07:32;;;;;;;11.43;7.47;;;;;;;;;;4968008;28;20225;-63
2022/01/27 15:10:00;;;;;;;9.53;6.83;;;;;;;;;;4969495;28;20224;-66
2022/01/27 15:12:27;;;;;;;14.17;7.50;;;;;;;;;;4984755;28;20212;-64
2022/01/27 15:20:32;;;;;;;11.10;6.60;;;;;;;;;;4962954;28;20275;-63
2022/01/27 15:23:00;;;;;;;29.80;15.43;;;;;;;;;;4982531;28;20209;-63
2022/01/27 15:25:27;;;;;;;12.80;7.70;;;;;;;;;;4963598;28;20208;-64
2022/01/27 15:27:55;;;;;;;9.60;6.73;;;;;;;;;;4960707;28;20638;-64
2022/01/27 15:30:23;;;;;;;12.40;7.37;;;;;;;;;;4970158;28;20241;-63
2022/01/27 15:32:50;;;;;;;13.97;9.00;;;;;;;;;;4969745;28;20217;-64
2022/01/27 15:35:18;;;;;;;11.43;7.40;;;;;;;;;;4972875;28;20240;-63
2022/01/27 15:37:46;;;;;;;10.97;7.33;;;;;;;;;;4968401;28;20216;-63